createdAt,value
2018-07-16T00:01:44.982Z,14.67
2018-07-16T00:04:13.166Z,14.67
2018-07-16T00:06:41.365Z,14.66
2018-07-16T00:09:09.553Z,14.68
2018-07-16T00:11:37.731Z,14.65
2018-07-16T00:14:05.968Z,14.63
2018-07-16T00:16:34.155Z,14.65
2018-07-16T00:19:02.342Z,14.59
2018-07-16T00:21:30.516Z,14.57
2018-07-16T00:23:58.634Z,14.58
2018-07-16T00:26:26.758Z,14.52
2018-07-16T00:28:54.910Z,14.44
2018-07-16T00:31:23.055Z,14.42
2018-07-16T00:33:51.153Z,14.41
2018-07-16T00:36:19.284Z,14.38
2018-07-16T00:38:47.434Z,14.36
2018-07-16T00:41:15.604Z,14.27
2018-07-16T00:43:43.716Z,14.18
2018-07-16T00:46:11.858Z,14.29
2018-07-16T00:48:40.049Z,14.29
2018-07-16T00:51:08.250Z,14.28
2018-07-16T00:53:36.422Z,14.13
2018-07-16T00:56:04.573Z,14.18
2018-07-16T00:58:32.689Z,14.08
2018-07-16T01:01:00.822Z,14.02
2018-07-16T01:03:28.995Z,13.99
2018-07-16T01:05:57.092Z,13.99
2018-07-16T01:08:25.198Z,13.95
2018-07-16T01:10:53.352Z,13.85
2018-07-16T01:13:21.440Z,13.85
2018-07-16T01:15:49.525Z,13.83
2018-07-16T01:18:17.712Z,13.83
2018-07-16T01:20:45.900Z,13.83
2018-07-16T01:23:14.003Z,13.83
2018-07-16T01:25:42.128Z,13.77
2018-07-16T01:28:10.256Z,13.73
2018-07-16T01:30:38.495Z,13.66
2018-07-16T01:33:06.588Z,13.64
2018-07-16T01:35:34.750Z,13.63
2018-07-16T01:38:03.166Z,13.75
2018-07-16T01:40:31.320Z,13.73
2018-07-16T01:42:59.454Z,13.45
2018-07-16T01:45:27.590Z,13.38
2018-07-16T01:47:55.725Z,13.41
2018-07-16T01:50:23.910Z,13.36
2018-07-16T01:52:52.075Z,13.04
2018-07-16T01:55:20.210Z,13.06
2018-07-16T01:57:48.373Z,13.18
2018-07-16T02:00:16.512Z,13.08
2018-07-16T02:02:44.633Z,13.07
2018-07-16T02:05:12.793Z,13.04
2018-07-16T02:07:40.941Z,13.03
2018-07-16T02:10:09.095Z,13.07
2018-07-16T02:12:37.242Z,13.11
2018-07-16T02:15:05.422Z,13.19
2018-07-16T02:17:33.939Z,13.25
2018-07-16T02:20:02.239Z,13.28
2018-07-16T02:22:30.456Z,13.34
2018-07-16T02:24:58.652Z,13.29
2018-07-16T02:27:26.782Z,13.44
2018-07-16T02:29:54.949Z,13.43
2018-07-16T02:32:23.075Z,13.42
2018-07-16T02:34:51.207Z,13.40
2018-07-16T02:37:19.337Z,13.46
2018-07-16T02:39:47.475Z,13.47
2018-07-16T02:42:15.629Z,13.49
2018-07-16T02:44:43.777Z,13.42
2018-07-16T02:47:11.982Z,13.42
2018-07-16T02:49:40.157Z,13.41
2018-07-16T02:52:08.301Z,13.35
2018-07-16T02:54:36.501Z,13.50
2018-07-16T02:57:04.654Z,13.50
2018-07-16T02:59:32.819Z,13.45
2018-07-16T03:02:00.954Z,13.33
2018-07-16T03:04:29.198Z,13.31
2018-07-16T03:06:57.357Z,13.31
2018-07-16T03:09:25.488Z,13.30
2018-07-16T03:11:53.607Z,13.31
2018-07-16T03:14:21.930Z,13.34
2018-07-16T03:16:50.067Z,13.32
2018-07-16T03:19:18.190Z,13.24
2018-07-16T03:21:46.353Z,13.21
2018-07-16T03:24:14.500Z,13.13
2018-07-16T03:26:42.611Z,12.73
2018-07-16T03:29:10.748Z,12.84
2018-07-16T03:31:38.918Z,12.90
2018-07-16T03:34:07.059Z,12.95
2018-07-16T03:36:35.215Z,12.99
2018-07-16T03:39:04.288Z,12.97
2018-07-16T03:41:32.443Z,12.95
2018-07-16T03:44:00.620Z,13.06
2018-07-16T03:46:28.779Z,13.08
2018-07-16T03:48:56.953Z,13.13
2018-07-16T03:51:25.168Z,12.93
2018-07-16T03:53:53.355Z,12.90
2018-07-16T03:56:21.494Z,13.09
2018-07-16T03:58:49.632Z,13.13
2018-07-16T04:01:17.802Z,12.94
2018-07-16T04:03:45.960Z,12.97
2018-07-16T04:06:14.105Z,13.19
2018-07-16T04:08:42.238Z,13.33
2018-07-16T04:11:10.361Z,13.36
2018-07-16T04:13:38.476Z,13.52
2018-07-16T04:16:06.597Z,13.61
2018-07-16T04:18:34.728Z,13.64
2018-07-16T04:21:02.857Z,13.71
2018-07-16T04:23:31.031Z,13.75
2018-07-16T04:25:59.194Z,13.87
2018-07-16T04:28:27.377Z,13.88
2018-07-16T04:30:55.534Z,13.92
2018-07-16T04:33:23.691Z,13.95
2018-07-16T04:35:51.859Z,14.13
2018-07-16T04:38:20.050Z,14.28
2018-07-16T04:40:48.232Z,14.43
2018-07-16T04:43:16.345Z,14.74
2018-07-16T04:45:44.500Z,14.86
2018-07-16T04:48:12.693Z,15.11
2018-07-16T04:50:40.859Z,14.92
2018-07-16T04:53:08.948Z,15.10
2018-07-16T04:55:37.128Z,15.44
2018-07-16T04:58:05.477Z,15.66
2018-07-16T05:00:33.600Z,16.62
2018-07-16T05:03:01.810Z,17.21
2018-07-16T05:05:29.930Z,17.30
2018-07-16T05:07:58.041Z,18.50
2018-07-16T05:10:26.188Z,19.91
2018-07-16T05:12:54.355Z,21.13
2018-07-16T05:15:22.439Z,21.98
2018-07-16T05:17:50.594Z,23.62
2018-07-16T05:20:18.724Z,23.94
2018-07-16T05:22:46.897Z,24.28
2018-07-16T05:25:15.028Z,24.43
2018-07-16T05:27:43.229Z,24.59
2018-07-16T05:30:11.358Z,25.20
2018-07-16T05:32:39.682Z,25.60
2018-07-16T05:35:07.604Z,25.93
2018-07-16T05:37:35.719Z,25.56
2018-07-16T05:40:03.875Z,27.30
2018-07-16T05:42:32.051Z,27.67
2018-07-16T05:45:00.134Z,27.11
2018-07-16T05:47:28.259Z,27.32
2018-07-16T05:49:56.353Z,27.59
2018-07-16T05:52:24.526Z,27.65
2018-07-16T05:54:52.640Z,28.77
2018-07-16T05:57:20.741Z,28.54
2018-07-16T05:59:49.033Z,27.46
2018-07-16T06:02:17.136Z,27.31
2018-07-16T06:04:45.269Z,27.52
2018-07-16T06:07:13.443Z,28.32
2018-07-16T06:09:41.616Z,28.69
2018-07-16T06:12:09.786Z,28.52
2018-07-16T06:14:37.945Z,27.34
2018-07-16T06:17:06.175Z,27.13
2018-07-16T06:19:34.309Z,28.39
2018-07-16T06:22:02.458Z,29.00
2018-07-16T06:24:30.569Z,32.28
2018-07-16T06:26:58.667Z,33.18
2018-07-16T06:29:26.750Z,29.74
2018-07-16T06:31:54.852Z,30.34
2018-07-16T06:34:22.974Z,29.96
2018-07-16T06:36:51.089Z,30.08
2018-07-16T06:39:19.302Z,31.06
2018-07-16T06:41:47.514Z,29.84
2018-07-16T06:44:15.575Z,29.85
2018-07-16T06:46:43.706Z,29.81
2018-07-16T06:49:11.839Z,31.47
2018-07-16T06:51:39.956Z,31.55
2018-07-16T06:54:08.353Z,30.47
2018-07-16T06:56:36.541Z,31.64
2018-07-16T06:59:04.719Z,31.07
2018-07-16T07:01:32.796Z,30.62
2018-07-16T07:04:00.892Z,30.58
2018-07-16T07:06:29.673Z,30.40
2018-07-16T07:08:57.794Z,30.76
2018-07-16T07:11:25.924Z,32.07
2018-07-16T07:13:54.049Z,31.77
2018-07-16T07:16:22.185Z,31.82
2018-07-16T07:18:50.288Z,31.23
2018-07-16T07:21:18.389Z,30.09
2018-07-16T07:23:46.523Z,30.38
2018-07-16T07:26:14.660Z,29.96
2018-07-16T07:28:42.745Z,29.89
2018-07-16T07:31:10.850Z,30.03
2018-07-16T07:33:39.019Z,31.83
2018-07-16T07:36:07.187Z,32.04
2018-07-16T07:38:35.267Z,30.40
2018-07-16T07:41:03.373Z,29.98
2018-07-16T07:43:31.469Z,29.87
2018-07-16T07:45:59.589Z,29.09
2018-07-16T07:48:27.673Z,29.59
2018-07-16T07:50:55.785Z,31.11
2018-07-16T07:53:23.892Z,30.11
2018-07-16T07:55:52.055Z,30.00
2018-07-16T07:58:20.188Z,29.30
2018-07-16T08:00:48.287Z,28.98
2018-07-16T08:03:16.577Z,29.24
2018-07-16T08:05:49.886Z,28.85
2018-07-16T08:08:18.053Z,30.02
2018-07-16T08:10:46.236Z,29.23
2018-07-16T08:13:14.379Z,29.27
2018-07-16T08:15:42.567Z,30.29
2018-07-16T08:18:10.784Z,29.35
2018-07-16T08:20:38.886Z,30.01
2018-07-16T08:23:07.151Z,30.57
2018-07-16T08:25:35.268Z,30.15
2018-07-16T08:28:03.415Z,31.20
2018-07-16T08:30:31.551Z,30.45
2018-07-16T08:32:59.842Z,30.10
2018-07-16T08:35:28.017Z,30.52
2018-07-16T08:37:56.107Z,29.27
2018-07-16T08:40:24.284Z,28.46
2018-07-16T08:42:52.400Z,29.25
2018-07-16T08:45:20.535Z,28.13
2018-07-16T08:47:48.780Z,27.71
2018-07-16T08:50:16.878Z,27.66
2018-07-16T08:52:45.007Z,29.23
2018-07-16T08:55:13.116Z,30.38
2018-07-16T08:57:41.322Z,30.85
2018-07-16T09:00:09.478Z,28.84
2018-07-16T09:02:37.620Z,27.57
2018-07-16T09:05:05.871Z,28.08
2018-07-16T09:07:34.288Z,27.49
2018-07-16T09:10:02.421Z,27.63
2018-07-16T09:12:30.526Z,28.49
2018-07-16T09:14:58.634Z,28.44
2018-07-16T09:17:26.760Z,28.59
2018-07-16T09:19:54.953Z,29.32
2018-07-16T09:22:23.033Z,29.29
2018-07-16T09:24:51.150Z,29.93
2018-07-16T09:27:19.294Z,28.08
2018-07-16T09:29:47.396Z,28.21
2018-07-16T09:32:15.523Z,28.35
2018-07-16T09:34:43.613Z,28.12
2018-07-16T09:37:11.688Z,27.08
2018-07-16T09:39:39.981Z,27.42
2018-07-16T09:42:08.104Z,27.89
2018-07-16T09:44:36.222Z,27.11
2018-07-16T09:47:04.334Z,27.64
2018-07-16T09:49:32.437Z,27.40
2018-07-16T09:52:01.465Z,27.25
2018-07-16T09:54:29.552Z,27.03
2018-07-16T09:56:57.685Z,27.01
2018-07-16T09:59:25.822Z,27.16
2018-07-16T10:01:59.277Z,27.32
2018-07-16T10:04:27.373Z,27.64
2018-07-16T10:06:55.485Z,27.83
2018-07-16T10:09:23.603Z,27.49
2018-07-16T10:11:51.746Z,27.60
2018-07-16T10:14:19.933Z,28.18
2018-07-16T10:16:47.967Z,27.84
2018-07-16T10:19:16.056Z,27.68
2018-07-16T10:21:44.178Z,27.83
2018-07-16T10:24:12.282Z,28.03
2018-07-16T10:26:40.415Z,27.81
2018-07-16T10:29:08.557Z,27.82
2018-07-16T10:31:36.719Z,28.02
2018-07-16T10:34:04.806Z,27.66
2018-07-16T10:36:32.906Z,27.46
2018-07-16T10:39:01.011Z,27.05
2018-07-16T10:41:29.177Z,27.04
2018-07-16T10:43:57.284Z,27.03
2018-07-16T10:46:25.407Z,27.33
2018-07-16T10:48:53.575Z,27.14
2018-07-16T10:51:21.686Z,27.10
2018-07-16T10:53:49.790Z,27.31
2018-07-16T10:56:17.904Z,27.46
2018-07-16T10:58:46.056Z,27.20
2018-07-16T11:01:14.217Z,27.40
2018-07-16T11:03:42.321Z,27.76
2018-07-16T11:06:15.721Z,27.83
2018-07-16T11:08:43.863Z,27.79
2018-07-16T11:11:11.994Z,26.97
2018-07-16T11:13:40.089Z,26.61
2018-07-16T11:16:08.240Z,27.08
2018-07-16T11:18:36.337Z,27.23
2018-07-16T11:21:04.424Z,26.92
2018-07-16T11:23:32.594Z,27.29
2018-07-16T11:26:00.693Z,27.05
2018-07-16T11:28:28.862Z,27.27
2018-07-16T11:30:56.943Z,27.23
2018-07-16T11:33:25.066Z,27.24
2018-07-16T11:35:53.258Z,27.19
2018-07-16T11:38:21.325Z,27.09
2018-07-16T11:40:49.543Z,27.24
2018-07-16T11:43:17.707Z,27.06
2018-07-16T11:45:45.830Z,27.30
2018-07-16T11:48:13.916Z,27.66
2018-07-16T11:50:42.038Z,27.98
2018-07-16T11:53:10.141Z,27.77
2018-07-16T11:55:38.268Z,27.34
2018-07-16T11:58:06.419Z,27.39
2018-07-16T12:00:34.565Z,27.66
2018-07-16T12:03:02.693Z,27.79
2018-07-16T12:05:30.809Z,28.02
2018-07-16T12:07:58.994Z,27.68
2018-07-16T12:10:27.105Z,27.77
2018-07-16T12:12:55.232Z,27.93
2018-07-16T12:15:23.336Z,27.89
2018-07-16T12:17:51.557Z,28.05
2018-07-16T12:20:19.686Z,28.20
2018-07-16T12:22:47.842Z,27.84
2018-07-16T12:25:16.191Z,27.30
2018-07-16T12:27:44.265Z,27.52
2018-07-16T12:30:12.390Z,27.68
2018-07-16T12:32:40.526Z,27.65
2018-07-16T12:35:08.614Z,27.60
2018-07-16T12:37:36.717Z,27.78
2018-07-16T12:40:04.827Z,27.97
2018-07-16T12:42:32.950Z,28.18
2018-07-16T12:45:01.077Z,28.28
2018-07-16T12:47:29.246Z,28.27
2018-07-16T12:49:57.364Z,28.39
2018-07-16T12:52:25.443Z,28.22
2018-07-16T12:54:53.571Z,28.17
2018-07-16T12:57:21.703Z,27.94
2018-07-16T12:59:50.061Z,27.63
2018-07-16T13:02:18.183Z,27.81
2018-07-16T13:04:46.285Z,27.75
2018-07-16T13:07:14.409Z,27.86
2018-07-16T13:09:42.549Z,27.68
2018-07-16T13:12:10.782Z,27.69
2018-07-16T13:14:38.926Z,27.76
2018-07-16T13:17:07.120Z,27.97
2018-07-16T13:19:35.208Z,27.36
2018-07-16T13:22:03.255Z,27.52
2018-07-16T13:24:31.360Z,27.35
2018-07-16T13:26:59.504Z,27.57
2018-07-16T13:29:27.607Z,27.89
2018-07-16T13:31:55.705Z,28.07
2018-07-16T13:34:23.771Z,28.43
2018-07-16T13:36:51.877Z,28.21
2018-07-16T13:39:19.993Z,27.95
2018-07-16T13:41:48.442Z,27.67
2018-07-16T13:44:16.628Z,27.45
2018-07-16T13:46:50.155Z,27.72
2018-07-16T13:49:18.215Z,27.88
2018-07-16T13:51:46.277Z,28.05
2018-07-16T13:54:14.405Z,28.16
2018-07-16T13:56:42.528Z,28.05
2018-07-16T13:59:10.659Z,27.96
2018-07-16T14:01:38.850Z,27.46
2018-07-16T14:04:06.931Z,27.38
2018-07-16T14:06:35.085Z,27.11
2018-07-16T14:09:03.903Z,27.00
2018-07-16T14:11:32.047Z,27.17
2018-07-16T14:14:00.163Z,27.56
2018-07-16T14:16:28.280Z,27.74
2018-07-16T14:18:56.399Z,27.95
2018-07-16T14:21:24.531Z,28.13
2018-07-16T14:23:52.635Z,27.92
2018-07-16T14:26:20.753Z,28.02
2018-07-16T14:28:48.887Z,28.02
2018-07-16T14:31:17.035Z,27.97
2018-07-16T14:33:45.145Z,28.03
2018-07-16T14:36:13.303Z,28.26
2018-07-16T14:38:41.482Z,28.32
2018-07-16T14:41:09.636Z,28.43
2018-07-16T14:43:37.731Z,27.93
2018-07-16T14:46:05.888Z,28.04
2018-07-16T14:48:34.029Z,28.09
2018-07-16T14:51:02.146Z,28.04
2018-07-16T14:53:30.255Z,27.97
2018-07-16T14:55:58.389Z,27.81
2018-07-16T14:58:26.472Z,27.77
2018-07-16T15:00:54.614Z,28.11
2018-07-16T15:03:22.913Z,27.92
2018-07-16T15:05:51.112Z,27.77
2018-07-16T15:08:19.264Z,27.25
2018-07-16T15:10:47.375Z,27.24
2018-07-16T15:13:15.482Z,27.42
2018-07-16T15:15:43.695Z,27.48
2018-07-16T15:18:11.844Z,27.58
2018-07-16T15:20:40.113Z,27.55
2018-07-16T15:23:08.084Z,27.45
2018-07-16T15:25:36.246Z,27.24
2018-07-16T15:28:04.321Z,27.14
2018-07-16T15:30:32.420Z,27.07
2018-07-16T15:33:00.598Z,27.27
2018-07-16T15:35:29.702Z,27.19
2018-07-16T15:37:57.845Z,27.11
2018-07-16T15:40:25.971Z,26.97
2018-07-16T15:42:54.108Z,26.63
2018-07-16T15:45:22.196Z,26.58
2018-07-16T15:47:50.299Z,26.46
2018-07-16T15:50:18.546Z,26.47
2018-07-16T15:52:46.646Z,26.47
2018-07-16T15:55:14.719Z,26.51
2018-07-16T15:57:42.910Z,26.46
2018-07-16T16:00:11.192Z,26.48
2018-07-16T16:02:39.377Z,26.51
2018-07-16T16:05:07.420Z,26.59
2018-07-16T16:07:35.575Z,26.62
2018-07-16T16:10:04.484Z,26.57
2018-07-16T16:12:32.563Z,26.35
2018-07-16T16:15:00.681Z,26.33
2018-07-16T16:17:28.831Z,26.35
2018-07-16T16:19:57.048Z,26.38
2018-07-16T16:22:25.102Z,26.27
2018-07-16T16:24:53.248Z,26.40
2018-07-16T16:27:21.338Z,26.27
2018-07-16T16:29:49.494Z,26.23
2018-07-16T16:32:17.625Z,26.02
2018-07-16T16:34:45.830Z,26.03
2018-07-16T16:37:13.977Z,26.04
2018-07-16T16:39:42.362Z,26.12
2018-07-16T16:42:10.648Z,26.09
2018-07-16T16:44:38.721Z,25.98
2018-07-16T16:47:06.861Z,25.96
2018-07-16T16:49:34.976Z,25.89
2018-07-16T16:52:03.138Z,25.80
2018-07-16T16:54:31.364Z,25.75
2018-07-16T16:56:59.465Z,25.65
2018-07-16T16:59:27.640Z,25.63
2018-07-16T17:01:55.808Z,25.57
2018-07-16T17:04:23.899Z,25.62
2018-07-16T17:06:52.081Z,25.55
2018-07-16T17:09:20.170Z,25.54
2018-07-16T17:11:48.344Z,25.49
2018-07-16T17:14:16.427Z,25.44
2018-07-16T17:16:44.530Z,25.47
2018-07-16T17:19:12.747Z,25.55
2018-07-16T17:21:40.864Z,25.35
2018-07-16T17:24:08.974Z,25.29
2018-07-16T17:26:37.121Z,25.28
2018-07-16T17:29:05.688Z,25.16
2018-07-16T17:31:33.870Z,25.09
2018-07-16T17:34:02.069Z,25.13
2018-07-16T17:36:30.235Z,25.04
2018-07-16T17:38:58.335Z,24.91
2018-07-16T17:41:26.508Z,24.83
2018-07-16T17:43:54.637Z,24.81
2018-07-16T17:46:22.791Z,24.77
2018-07-16T17:48:50.914Z,24.75
2018-07-16T17:51:19.073Z,24.76
2018-07-16T17:53:47.256Z,24.70
2018-07-16T17:56:15.419Z,24.64
2018-07-16T17:58:43.607Z,24.62
2018-07-16T18:01:11.754Z,24.56
2018-07-16T18:03:39.873Z,24.44
2018-07-16T18:06:08.066Z,24.41
2018-07-16T18:08:36.184Z,24.29
2018-07-16T18:11:04.352Z,24.29
2018-07-16T18:13:32.488Z,24.34
2018-07-16T18:16:00.602Z,24.17
2018-07-16T18:18:28.754Z,24.22
2018-07-16T18:20:56.946Z,24.08
2018-07-16T18:23:25.059Z,23.95
2018-07-16T18:25:53.191Z,23.89
2018-07-16T18:28:21.341Z,23.73
2018-07-16T18:30:49.498Z,23.72
2018-07-16T18:33:17.677Z,23.66
2018-07-16T18:35:45.792Z,23.56
2018-07-16T18:38:13.984Z,23.45
2018-07-16T18:40:42.196Z,23.38
2018-07-16T18:43:10.361Z,23.32
2018-07-16T18:45:38.476Z,23.27
2018-07-16T18:48:06.601Z,23.09
2018-07-16T18:50:34.722Z,22.98
2018-07-16T18:53:02.907Z,22.93
2018-07-16T18:55:31.133Z,22.91
2018-07-16T18:57:59.244Z,22.86
2018-07-16T19:00:27.367Z,22.73
2018-07-16T19:02:55.486Z,22.66
2018-07-16T19:05:23.671Z,22.52
2018-07-16T19:07:51.815Z,22.40
2018-07-16T19:10:19.892Z,22.38
2018-07-16T19:12:48.004Z,22.25
2018-07-16T19:15:23.836Z,22.08
2018-07-16T19:17:52.547Z,22.11
2018-07-16T19:20:20.671Z,22.05
2018-07-16T19:22:48.819Z,21.92
2018-07-16T19:25:17.223Z,21.81
2018-07-16T19:27:45.322Z,21.74
2018-07-16T19:30:13.497Z,21.64
2018-07-16T19:32:41.601Z,21.58
2018-07-16T19:35:09.714Z,21.50
2018-07-16T19:37:37.781Z,21.45
2018-07-16T19:40:07.005Z,21.38
2018-07-16T19:42:35.167Z,21.31
2018-07-16T19:45:03.357Z,21.16
2018-07-16T19:47:31.440Z,21.03
2018-07-16T19:49:59.579Z,20.96
2018-07-16T19:52:27.713Z,20.92
2018-07-16T19:54:55.844Z,20.81
2018-07-16T19:57:24.014Z,20.73
2018-07-16T19:59:52.131Z,20.69
2018-07-16T20:02:20.224Z,20.50
2018-07-16T20:04:48.363Z,20.35
2018-07-16T20:07:16.483Z,20.23
2018-07-16T20:09:44.933Z,20.28
2018-07-16T20:12:33.321Z,20.13
2018-07-16T20:15:02.321Z,20.03
2018-07-16T20:17:31.169Z,19.97
2018-07-16T20:19:59.656Z,19.88
2018-07-16T20:22:28.240Z,19.84
2018-07-16T20:24:56.354Z,19.78
2018-07-16T20:27:24.454Z,19.76
2018-07-16T20:29:52.760Z,19.70
2018-07-16T20:32:20.877Z,19.72
2018-07-16T20:34:48.945Z,19.58
2018-07-16T20:37:17.060Z,19.51
2018-07-16T20:39:45.713Z,19.51
2018-07-16T20:42:13.821Z,19.36
2018-07-16T20:44:42.050Z,19.13
2018-07-16T20:47:10.169Z,19.13
2018-07-16T20:49:38.396Z,19.09
2018-07-16T20:52:06.638Z,18.98
2018-07-16T20:54:34.763Z,18.98
2018-07-16T20:57:02.861Z,18.95
2018-07-16T20:59:30.956Z,18.93
2018-07-16T21:01:59.071Z,18.92
2018-07-16T21:04:27.148Z,18.86
2018-07-16T21:06:55.228Z,18.63
2018-07-16T21:09:23.326Z,18.60
2018-07-16T21:11:51.449Z,18.58
2018-07-16T21:14:19.562Z,18.56
2018-07-16T21:16:47.686Z,18.60
2018-07-16T21:19:15.806Z,18.74
2018-07-16T21:21:43.945Z,18.48
2018-07-16T21:24:12.007Z,18.52
2018-07-16T21:26:40.228Z,18.45
2018-07-16T21:29:08.390Z,18.45
2018-07-16T21:31:36.518Z,18.29
2018-07-16T21:34:04.613Z,18.08
2018-07-16T21:36:32.699Z,18.09
2018-07-16T21:39:00.794Z,18.08
2018-07-16T21:41:28.861Z,18.12
2018-07-16T21:43:57.024Z,18.08
2018-07-16T21:46:25.109Z,18.07
2018-07-16T21:48:53.223Z,18.07
2018-07-16T21:51:21.331Z,17.99
2018-07-16T21:53:49.481Z,17.88
2018-07-16T21:56:17.583Z,17.78
2018-07-16T21:58:45.694Z,17.82
2018-07-16T22:01:13.841Z,17.74
2018-07-16T22:03:41.951Z,17.59
2018-07-16T22:06:10.063Z,17.61
2018-07-16T22:08:38.172Z,17.70
2018-07-16T22:11:06.302Z,17.67
2018-07-16T22:13:34.430Z,17.55
2018-07-16T22:16:02.562Z,17.47
2018-07-16T22:18:30.685Z,17.47
2018-07-16T22:20:58.893Z,17.46
2018-07-16T22:23:27.028Z,17.51
2018-07-16T22:25:55.135Z,17.52
2018-07-16T22:28:23.276Z,17.50
2018-07-16T22:30:51.406Z,17.43
2018-07-16T22:33:19.510Z,17.40
2018-07-16T22:35:47.606Z,17.31
2018-07-16T22:38:15.667Z,17.26
2018-07-16T22:40:43.823Z,17.25
2018-07-16T22:43:11.966Z,17.24
2018-07-16T22:45:40.037Z,17.22
2018-07-16T22:48:08.120Z,17.13
2018-07-16T22:50:36.269Z,17.10
2018-07-16T22:53:04.408Z,17.02
2018-07-16T22:55:32.537Z,16.87
2018-07-16T22:58:00.656Z,16.67
2018-07-16T23:00:28.756Z,16.74
2018-07-16T23:02:56.893Z,16.74
2018-07-16T23:05:24.971Z,16.78
2018-07-16T23:07:53.058Z,16.75
2018-07-16T23:10:21.149Z,16.76
2018-07-16T23:12:49.296Z,16.75
2018-07-16T23:15:17.412Z,16.75
2018-07-16T23:17:45.549Z,16.72
2018-07-16T23:20:13.724Z,16.71
2018-07-16T23:22:50.305Z,16.66
2018-07-16T23:25:18.488Z,16.45
2018-07-16T23:27:47.260Z,16.38
2018-07-16T23:30:16.262Z,16.21
2018-07-16T23:32:44.941Z,16.15
2018-07-16T23:35:13.154Z,15.92
2018-07-16T23:37:41.306Z,15.85
2018-07-16T23:40:09.535Z,15.95
2018-07-16T23:42:37.628Z,16.05
2018-07-16T23:45:05.749Z,16.12
2018-07-16T23:47:33.888Z,16.07
2018-07-16T23:50:02.116Z,16.11
2018-07-16T23:52:30.976Z,16.17
2018-07-16T23:54:59.240Z,16.17
2018-07-16T23:57:27.384Z,16.25
2018-07-16T23:59:55.525Z,16.18
